Time;durP1;ratioP1;P1;durP2;ratioP2;P2;SDS_P1;SDS_P2;PMS_P1;PMS_P2;Temp;Humidity;BMP_temperature;BMP_pressure;BME280_temperature;BME280_humidity;BME280_pressure;Samples;Min_cycle;Max_cycle;Signal;HPM_P1;HPM_P2
2023/04/29 00:00:35;;;;;;;17.15;11.60;;;;;;;9.97;77.94;100655.19;5035234;28;20326;-57
2023/04/29 00:03:01;;;;;;;18.00;11.98;;;;;;;9.98;77.29;100659.53;5034747;28;20581;-57
2023/04/29 00:05:26;;;;;;;19.20;13.05;;;;;;;10.00;77.08;100657.66;5031865;28;20112;-57
2023/04/29 00:07:52;;;;;;;19.27;12.80;;;;;;;10.03;76.79;100651.41;5031232;28;20029;-58
2023/04/29 00:10:18;;;;;;;18.98;12.80;;;;;;;10.01;76.84;100654.13;5035460;28;20470;-57
2023/04/29 00:12:43;;;;;;;18.85;12.65;;;;;;;10.00;77.39;100657.66;5033656;28;20021;-59
2023/04/29 00:15:09;;;;;;;18.55;13.82;;;;;;;10.06;77.06;100652.13;5033506;28;20521;-57
2023/04/29 00:17:35;;;;;;;18.50;12.55;;;;;;;10.07;77.20;100647.72;5035719;28;20052;-57
2023/04/29 00:20:01;;;;;;;19.27;12.07;;;;;;;10.08;77.13;100639.69;5034573;28;20037;-57
2023/04/29 00:22:27;;;;;;;18.38;12.10;;;;;;;10.13;76.96;100641.28;5035407;28;20091;-57
2023/04/29 00:24:52;;;;;;;18.38;13.23;;;;;;;10.17;76.48;100641.06;5032461;28;20442;-57
2023/04/29 00:27:18;;;;;;;19.48;13.57;;;;;;;10.15;77.59;100649.97;5032031;28;20037;-56
2023/04/29 00:29:43;;;;;;;20.35;14.27;;;;;;;10.05;78.32;100660.09;5033254;28;20036;-56
2023/04/29 00:32:09;;;;;;;18.30;12.93;;;;;;;9.96;79.29;100661.38;5029025;28;20431;-56
2023/04/29 00:34:34;;;;;;;19.98;12.95;;;;;;;9.90;79.57;100653.72;5034167;28;20446;-57
2023/04/29 00:37:00;;;;;;;18.08;12.60;;;;;;;9.78;81.49;100646.38;5032745;28;20175;-57
2023/04/29 00:39:25;;;;;;;23.80;13.70;;;;;;;9.73;82.57;100644.78;5034283;28;20063;-56
2023/04/29 00:41:51;;;;;;;20.83;14.75;;;;;;;9.61;82.52;100645.31;5032491;28;20026;-56
2023/04/29 00:44:17;;;;;;;20.95;14.02;;;;;;;9.54;84.01;100643.84;5033685;28;20033;-58
2023/04/29 00:46:42;;;;;;;20.40;13.98;;;;;;;9.47;84.58;100639.78;5029136;28;20476;-57
2023/04/29 00:49:08;;;;;;;19.80;13.85;;;;;;;9.41;84.87;100647.94;5030396;28;20237;-57
2023/04/29 00:51:35;;;;;;;21.58;14.48;;;;;;;9.41;84.56;100640.03;5028109;28;20065;-57
2023/04/29 00:54:02;;;;;;;20.50;14.90;;;;;;;9.45;86.23;100638.97;5030452;28;20447;-57
2023/04/29 00:56:31;;;;;;;21.80;16.10;;;;;;;9.41;86.23;100637.41;5027027;28;20045;-57
2023/04/29 00:58:57;;;;;;;26.40;19.20;;;;;;;9.45;86.40;100639.84;5032472;28;20083;-58
2023/04/29 01:01:23;;;;;;;22.10;15.48;;;;;;;9.41;86.31;100642.66;5031623;28;20021;-57
2023/04/29 01:03:49;;;;;;;25.38;19.00;;;;;;;9.40;86.97;100640.94;5028529;28;20032;-56
2023/04/29 01:06:36;;;;;;;26.70;18.65;;;;;;;9.41;88.12;100638.25;5030733;28;20026;-56
2023/04/29 01:09:20;;;;;;;24.48;16.50;;;;;;;9.36;87.57;100633.16;5027998;28;20033;-56
2023/04/29 01:11:57;;;;;;;26.33;16.58;;;;;;;9.35;88.04;100644.66;5029019;28;20087;-56
2023/04/29 01:14:23;;;;;;;22.83;16.02;;;;;;;9.34;87.65;100648.19;5032888;28;20056;-56
2023/04/29 01:16:51;;;;;;;25.75;17.15;;;;;;;9.29;87.65;100650.19;5033753;28;20604;-56
2023/04/29 01:19:39;;;;;;;24.35;18.60;;;;;;;9.29;88.43;100650.19;5025912;28;20030;-55
2023/04/29 01:22:04;;;;;;;32.88;20.02;;;;;;;9.32;88.19;100655.31;5023548;28;20034;-55
2023/04/29 01:24:30;;;;;;;27.40;19.42;;;;;;;9.32;88.23;100650.06;5033396;28;20171;-55
2023/04/29 01:26:57;;;;;;;23.48;16.65;;;;;;;9.36;88.53;100646.34;5031083;28;20540;-56
2023/04/29 01:30:11;;;;;;;25.88;19.02;;;;;;;9.34;88.35;100645.56;5029209;28;20549;-55
2023/04/29 01:32:59;;;;;;;30.05;19.40;;;;;;;9.31;89.06;100635.13;5011795;28;20042;-56
2023/04/29 01:35:49;;;;;;;23.90;17.70;;;;;;;9.24;89.08;100636.31;5027815;28;20041;-55
2023/04/29 01:38:38;;;;;;;28.45;18.58;;;;;;;9.27;89.92;100636.19;5032569;28;20092;-56
2023/04/29 01:41:14;;;;;;;25.42;18.33;;;;;;;9.26;89.63;100639.75;5033301;28;20041;-55
2023/04/29 01:43:42;;;;;;;28.80;19.13;;;;;;;9.27;90.04;100630.94;5033073;28;20108;-56
2023/04/29 01:46:12;;;;;;;25.42;17.95;;;;;;;9.34;90.10;100636.81;5025684;28;20449;-55
2023/04/29 01:48:38;;;;;;;28.95;19.45;;;;;;;9.31;89.75;100637.78;5028893;28;20040;-56
2023/04/29 01:51:05;;;;;;;31.42;19.10;;;;;;;9.33;90.20;100641.22;5033145;28;20025;-55
2023/04/29 01:53:31;;;;;;;27.35;17.83;;;;;;;9.33;90.11;100635.94;5030190;28;20190;-55
2023/04/29 01:55:56;;;;;;;28.05;18.00;;;;;;;9.32;90.38;100633.38;5028684;28;20017;-55
2023/04/29 01:58:22;;;;;;;25.35;17.35;;;;;;;9.34;90.14;100629.72;5032172;28;20426;-55
2023/04/29 02:00:47;;;;;;;28.13;17.48;;;;;;;9.31;90.43;100632.50;5031484;28;20045;-55
2023/04/29 02:03:13;;;;;;;36.17;22.40;;;;;;;9.43;91.62;100632.91;5026478;28;21372;-55
2023/04/29 02:05:38;;;;;;;33.10;22.52;;;;;;;9.46;91.37;100630.13;5032601;28;20101;-54
2023/04/29 02:08:06;;;;;;;32.72;22.00;;;;;;;9.57;91.85;100627.03;5031982;28;20034;-56
2023/04/29 02:10:32;;;;;;;41.20;24.70;;;;;;;9.66;91.87;100630.16;5030941;28;20634;-55
2023/04/29 02:12:57;;;;;;;39.63;22.98;;;;;;;9.65;91.47;100620.50;5029469;28;20037;-55
2023/04/29 02:15:26;;;;;;;33.70;20.80;;;;;;;9.65;91.05;100623.13;5030619;28;20065;-55
2023/04/29 02:17:52;;;;;;;28.10;21.23;;;;;;;9.64;90.99;100617.94;5029836;28;20103;-55
2023/04/29 02:20:17;;;;;;;34.70;23.08;;;;;;;9.66;91.23;100622.22;5028393;28;20037;-55
2023/04/29 02:22:43;;;;;;;42.85;21.77;;;;;;;9.57;91.21;100622.63;5032401;28;20160;-55
2023/04/29 02:25:08;;;;;;;32.15;21.95;;;;;;;9.62;90.65;100620.63;5033565;28;20051;-55
2023/04/29 02:27:34;;;;;;;33.17;21.67;;;;;;;9.55;90.81;100625.31;5033998;28;20354;-55
2023/04/29 02:29:59;;;;;;;33.20;21.90;;;;;;;9.62;90.46;100625.06;5031199;28;20029;-56
2023/04/29 02:32:24;;;;;;;32.78;22.80;;;;;;;9.62;89.93;100623.28;5033591;28;20116;-55
2023/04/29 02:34:50;;;;;;;32.33;23.58;;;;;;;9.60;89.81;100622.47;5034289;28;20119;-55
2023/04/29 02:37:16;;;;;;;43.42;24.73;;;;;;;9.61;90.32;100618.94;5032379;28;20034;-55
2023/04/29 02:39:41;;;;;;;30.90;21.60;;;;;;;9.61;90.04;100624.22;5032901;28;20022;-55
2023/04/29 02:42:07;;;;;;;34.90;22.80;;;;;;;9.62;90.65;100620.63;5035226;28;20030;-56
2023/04/29 02:44:32;;;;;;;29.05;22.30;;;;;;;9.62;90.08;100618.00;5034216;28;20222;-55
2023/04/29 02:46:58;;;;;;;39.88;24.90;;;;;;;9.61;90.37;100618.94;5032569;28;20048;-55
2023/04/29 02:49:23;;;;;;;35.97;25.17;;;;;;;9.62;90.48;100615.34;5030655;28;20029;-55
2023/04/29 02:51:48;;;;;;;42.83;27.20;;;;;;;9.63;91.16;100617.06;5032237;28;20085;-55
2023/04/29 02:54:15;;;;;;;43.35;26.70;;;;;;;9.71;90.82;100614.97;5031637;28;20044;-55
2023/04/29 02:56:41;;;;;;;37.42;24.35;;;;;;;9.74;90.86;100617.47;5029886;28;20090;-55
2023/04/29 02:59:06;;;;;;;43.15;26.80;;;;;;;9.69;91.00;100605.38;5027406;28;20025;-57
2023/04/29 03:01:32;;;;;;;43.67;25.48;;;;;;;9.72;91.08;100610.53;5031528;28;20465;-55
2023/04/29 03:03:57;;;;;;;39.72;26.45;;;;;;;9.68;91.25;100619.53;5029992;28;20036;-56
2023/04/29 03:06:23;;;;;;;50.80;27.63;;;;;;;9.72;91.06;100623.72;5025061;28;20151;-55
2023/04/29 03:08:48;;;;;;;43.47;28.77;;;;;;;9.76;91.58;100627.06;5031469;28;20029;-55
2023/04/29 03:11:13;;;;;;;43.13;27.75;;;;;;;9.80;91.38;100618.13;5022077;28;20034;-55
2023/04/29 03:13:39;;;;;;;47.75;30.40;;;;;;;9.88;91.41;100613.34;5026904;28;20033;-56
2023/04/29 03:16:05;;;;;;;46.58;29.40;;;;;;;9.87;91.72;100608.97;5030055;28;20057;-55
2023/04/29 03:18:31;;;;;;;52.80;29.98;;;;;;;9.93;91.94;100614.00;5035366;28;20365;-56
2023/04/29 03:20:56;;;;;;;49.15;30.98;;;;;;;9.99;91.36;100607.56;5031540;28;20037;-55
2023/04/29 03:23:22;;;;;;;55.20;30.30;;;;;;;10.01;91.36;100609.22;5030318;28;20362;-55
2023/04/29 03:25:47;;;;;;;44.67;28.75;;;;;;;10.04;91.52;100610.88;5013817;28;20169;-55
2023/04/29 03:28:13;;;;;;;48.63;29.92;;;;;;;10.18;91.57;100607.59;5016753;28;20045;-55
2023/04/29 03:30:39;;;;;;;53.53;31.05;;;;;;;10.19;91.42;100611.97;5020085;28;20125;-55
2023/04/29 03:33:04;;;;;;;52.67;31.80;;;;;;;10.16;91.19;100604.16;5033429;28;20430;-55
2023/04/29 03:35:30;;;;;;;54.47;33.33;;;;;;;10.16;91.09;100602.38;5032319;28;20017;-56
2023/04/29 03:37:55;;;;;;;54.28;31.88;;;;;;;10.16;91.41;100606.81;5031718;28;20144;-55
2023/04/29 03:40:20;;;;;;;56.67;31.98;;;;;;;10.15;91.70;100610.38;5030186;28;20031;-57
2023/04/29 03:42:46;;;;;;;59.50;32.13;;;;;;;10.14;91.80;100606.03;5026878;28;20365;-56
2023/04/29 03:45:13;;;;;;;59.90;34.40;;;;;;;10.13;91.74;100609.59;5035443;28;20119;-55
2023/04/29 03:47:38;;;;;;;53.45;32.08;;;;;;;10.13;92.11;100610.44;5034787;28;20042;-55
2023/04/29 03:50:04;;;;;;;53.38;30.70;;;;;;;10.16;91.88;100609.44;5032073;28;20040;-55
2023/04/29 03:52:30;;;;;;;51.08;31.52;;;;;;;10.20;91.23;100605.72;5034301;28;20033;-56
2023/04/29 03:54:56;;;;;;;56.42;31.75;;;;;;;10.21;91.49;100618.00;5024231;28;20041;-55
2023/04/29 03:57:21;;;;;;;58.53;32.35;;;;;;;10.19;91.78;100614.59;5020716;28;20063;-56
2023/04/29 03:59:49;;;;;;;51.75;31.92;;;;;;;10.22;91.71;100625.03;5034405;28;20029;-56
2023/04/29 04:02:15;;;;;;;54.28;32.95;;;;;;;10.19;91.38;100614.59;5034449;28;20032;-56
2023/04/29 04:04:41;;;;;;;57.10;31.60;;;;;;;10.21;92.07;100613.59;5030513;28;20080;-56
2023/04/29 04:07:06;;;;;;;60.63;31.98;;;;;;;10.18;92.21;100620.78;5027900;28;20037;-56
2023/04/29 04:09:32;;;;;;;49.35;30.23;;;;;;;10.18;92.04;100618.16;5034387;28;20052;-56
2023/04/29 04:11:57;;;;;;;62.92;34.40;;;;;;;10.18;92.22;100618.16;5029093;28;20029;-56
2023/04/29 04:14:23;;;;;;;61.83;34.55;;;;;;;10.21;92.61;100618.00;5022999;28;20385;-56
2023/04/29 04:16:49;;;;;;;60.08;33.33;;;;;;;10.20;92.23;100627.72;5029019;28;20084;-56
2023/04/29 04:19:15;;;;;;;56.53;31.42;;;;;;;10.23;91.71;100627.59;5035494;28;20040;-54
2023/04/29 04:21:41;;;;;;;58.92;33.15;;;;;;;10.23;92.22;100618.78;5034728;28;20025;-55
2023/04/29 04:24:07;;;;;;;56.38;33.65;;;;;;;10.25;91.82;100622.25;5035180;28;20079;-55
2023/04/29 04:26:32;;;;;;;58.50;33.03;;;;;;;10.23;92.30;100626.72;5032628;28;20057;-54
2023/04/29 04:28:58;;;;;;;60.00;33.33;;;;;;;10.26;92.56;100626.56;5032102;28;20194;-56
2023/04/29 04:31:24;;;;;;;65.68;32.83;;;;;;;10.25;92.26;100631.00;5027389;28;20068;-56
2023/04/29 04:33:49;;;;;;;60.35;32.92;;;;;;;10.24;92.33;100628.44;5032861;28;20070;-56
2023/04/29 04:36:15;;;;;;;64.53;36.10;;;;;;;10.25;92.79;100630.16;5027099;28;20032;-55
2023/04/29 04:38:40;;;;;;;57.63;33.47;;;;;;;10.24;92.66;100628.44;5030350;28;20120;-55
2023/04/29 04:41:07;;;;;;;64.97;35.42;;;;;;;10.22;92.57;100630.31;5030154;28;20041;-55
2023/04/29 04:43:32;;;;;;;54.65;32.30;;;;;;;10.25;92.18;100630.16;5028176;28;20033;-54
2023/04/29 04:45:58;;;;;;;62.45;34.50;;;;;;;10.23;92.23;100622.31;5028336;28;20021;-56
2023/04/29 04:48:23;;;;;;;61.70;33.13;;;;;;;10.26;92.31;100631.88;5028351;28;20029;-55
2023/04/29 04:50:48;;;;;;;61.95;34.50;;;;;;;10.29;92.96;100632.56;5031888;28;20575;-55
2023/04/29 04:53:14;;;;;;;58.85;32.58;;;;;;;10.24;92.71;100639.00;5027733;28;20128;-56
2023/04/29 04:55:39;;;;;;;58.38;32.60;;;;;;;10.24;92.84;100633.72;5029523;28;20033;-55
2023/04/29 04:58:05;;;;;;;59.70;32.47;;;;;;;10.24;93.08;100639.00;5030148;28;20060;-55
2023/04/29 05:00:30;;;;;;;60.92;33.20;;;;;;;10.27;93.54;100644.16;5027391;28;20438;-55
2023/04/29 05:02:56;;;;;;;63.42;35.10;;;;;;;10.29;93.29;100637.84;5032198;28;20122;-56
2023/04/29 05:05:21;;;;;;;63.80;34.92;;;;;;;10.32;92.75;100636.91;5046550;28;20035;-56
2023/04/29 05:07:47;;;;;;;57.17;34.20;;;;;;;10.34;92.46;100640.31;5046299;28;20369;-55
2023/04/29 05:10:12;;;;;;;55.45;31.92;;;;;;;10.35;92.90;100642.03;5030896;28;20096;-55
2023/04/29 05:12:37;;;;;;;61.53;33.75;;;;;;;10.33;92.95;100643.91;5027208;28;20029;-55
2023/04/29 05:15:03;;;;;;;63.15;33.38;;;;;;;10.38;93.20;100647.19;5032413;28;20434;-55
2023/04/29 05:17:29;;;;;;;60.75;32.60;;;;;;;10.38;92.83;100643.66;5030149;28;20045;-55
2023/04/29 05:19:55;;;;;;;62.72;33.13;;;;;;;10.38;92.78;100647.19;5029308;28;20056;-55
2023/04/29 05:22:20;;;;;;;65.32;33.45;;;;;;;10.39;92.50;100648.88;5034155;28;20457;-55
2023/04/29 05:24:47;;;;;;;61.13;31.20;;;;;;;10.43;93.21;100646.97;5035068;28;20336;-56
2023/04/29 05:27:13;;;;;;;62.30;32.63;;;;;;;10.44;92.65;100646.88;5033970;28;20044;-55
2023/04/29 05:29:38;;;;;;;64.93;34.58;;;;;;;10.45;92.77;100643.31;5032260;28;20485;-55
2023/04/29 05:32:04;;;;;;;69.72;34.70;;;;;;;10.52;92.84;100650.97;5032639;28;20215;-55
2023/04/29 05:34:29;;;;;;;62.50;32.95;;;;;;;10.53;92.51;100655.34;5022151;28;20026;-55
2023/04/29 05:36:56;;;;;;;66.78;34.47;;;;;;;10.50;92.79;100651.03;5030579;28;20030;-55
2023/04/29 05:39:21;;;;;;;72.25;35.15;;;;;;;10.52;93.18;100658.91;5027516;28;20523;-56
2023/04/29 05:41:47;;;;;;;69.85;33.90;;;;;;;10.54;92.88;100654.38;5026579;28;20033;-56
2023/04/29 05:44:12;;;;;;;62.72;33.65;;;;;;;10.57;92.29;100651.59;5032829;28;20458;-55
2023/04/29 05:46:37;;;;;;;65.85;32.78;;;;;;;10.58;92.88;100654.19;5030533;28;20430;-55
2023/04/29 05:49:03;;;;;;;60.47;31.92;;;;;;;10.63;92.27;100656.59;5025305;28;20030;-55
2023/04/29 05:51:28;;;;;;;58.60;31.90;;;;;;;10.64;92.31;100663.59;5029325;28;20029;-55
2023/04/29 05:53:54;;;;;;;59.03;30.52;;;;;;;10.66;91.73;100661.75;5032484;28;20025;-55
2023/04/29 05:56:21;;;;;;;58.92;30.20;;;;;;;10.66;92.17;100672.31;5030169;28;20401;-55
2023/04/29 05:58:46;;;;;;;63.58;29.75;;;;;;;10.66;92.20;100664.41;5028359;28;20033;-55
2023/04/29 06:01:12;;;;;;;58.78;31.13;;;;;;;10.68;92.08;100669.63;5032162;28;20021;-55
2023/04/29 06:03:37;;;;;;;56.40;28.67;;;;;;;10.69;91.83;100666.91;5031631;28;20061;-55
2023/04/29 06:06:03;;;;;;;65.20;29.80;;;;;;;10.71;91.97;100675.59;5028254;28;20137;-55
2023/04/29 06:08:28;;;;;;;54.00;29.65;;;;;;;10.69;91.59;100666.91;5026489;28;20028;-55
2023/04/29 06:10:54;;;;;;;55.35;27.95;;;;;;;10.69;91.70;100677.47;5031083;28;20033;-55
2023/04/29 06:13:20;;;;;;;63.70;30.80;;;;;;;10.79;92.27;100673.44;5030849;28;20029;-55
2023/04/29 06:15:45;;;;;;;63.35;30.27;;;;;;;10.75;92.28;100682.44;5031002;28;20635;-55
2023/04/29 06:18:11;;;;;;;62.72;29.33;;;;;;;10.69;92.20;100688.03;5029236;28;20052;-56
2023/04/29 06:20:36;;;;;;;63.08;29.73;;;;;;;10.74;92.73;100693.97;5026761;28;20025;-55
2023/04/29 06:23:02;;;;;;;58.25;28.58;;;;;;;10.69;92.53;100688.03;5029396;28;20108;-55
2023/04/29 06:25:27;;;;;;;63.03;29.20;;;;;;;10.73;92.33;100684.31;5025988;28;20088;-56
2023/04/29 06:27:53;;;;;;;61.10;28.75;;;;;;;10.71;92.19;100696.75;5030323;28;20026;-57
2023/04/29 06:30:18;;;;;;;62.33;27.70;;;;;;;10.72;92.89;100693.16;5031070;28;20060;-56
2023/04/29 06:32:43;;;;;;;56.20;28.02;;;;;;;10.70;93.10;100710.88;5029139;28;20057;-54
2023/04/29 06:35:09;;;;;;;68.68;30.30;;;;;;;10.68;92.83;100707.47;5030115;28;20453;-55
2023/04/29 06:37:34;;;;;;;54.58;25.80;;;;;;;10.64;92.71;100716.47;5030878;28;20029;-55
2023/04/29 06:40:00;;;;;;;61.33;29.98;;;;;;;10.61;92.88;100711.34;5032160;28;20142;-56
2023/04/29 06:42:25;;;;;;;62.97;27.88;;;;;;;10.64;93.24;100714.69;5030393;28;20338;-54
2023/04/29 06:44:50;;;;;;;56.83;27.08;;;;;;;10.63;92.87;100723.53;5032192;28;20060;-56
2023/04/29 06:47:16;;;;;;;59.38;26.98;;;;;;;10.69;92.23;100725.06;5032134;28;20036;-56
2023/04/29 06:49:42;;;;;;;54.30;26.73;;;;;;;10.75;92.48;100724.75;5026969;28;20430;-56
2023/04/29 06:52:08;;;;;;;44.42;24.23;;;;;;;10.70;92.22;100721.47;5024996;28;20056;-54
2023/04/29 06:54:33;;;;;;;49.58;25.55;;;;;;;10.62;91.56;100723.59;5026774;28;20438;-54
2023/04/29 06:56:59;;;;;;;48.90;26.58;;;;;;;10.56;90.99;100729.16;5031107;28;20079;-56
2023/04/29 06:59:24;;;;;;;49.22;23.70;;;;;;;10.45;90.84;100738.44;5028946;28;20029;-56
2023/04/29 07:01:50;;;;;;;51.05;25.38;;;;;;;10.40;91.40;100745.72;5025292;28;20104;-57
2023/04/29 07:04:16;;;;;;;55.63;26.15;;;;;;;10.34;91.32;100748.66;5018739;28;20030;-56
2023/04/29 07:06:45;;;;;;;55.55;28.48;;;;;;;10.42;90.96;100741.22;5028954;28;20040;-56
2023/04/29 07:09:12;;;;;;;48.85;27.02;;;;;;;10.38;91.29;100747.59;5021603;28;20034;-56
2023/04/29 07:11:38;;;;;;;54.72;28.13;;;;;;;10.41;90.79;100752.75;5030839;28;20038;-55
2023/04/29 07:14:03;;;;;;;60.47;30.35;;;;;;;10.34;90.80;100751.28;5013050;28;20033;-55
2023/04/29 07:16:29;;;;;;;53.20;27.58;;;;;;;10.26;90.56;100756.88;5035731;28;20036;-57
2023/04/29 07:18:54;;;;;;;56.50;29.85;;;;;;;10.25;91.02;100762.25;5035721;28;20048;-55
2023/04/29 07:21:20;;;;;;;59.40;29.80;;;;;;;10.28;90.80;100767.38;5023391;28;20084;-56
2023/04/29 07:23:45;;;;;;;60.00;28.50;;;;;;;10.28;91.25;100770.00;5036485;28;20048;-55
2023/04/29 07:26:15;;;;;;;60.78;29.55;;;;;;;10.26;90.53;100769.22;5035275;28;20115;-56
2023/04/29 07:28:41;;;;;;;58.33;29.50;;;;;;;10.22;90.55;100786.16;5043751;28;20029;-54
2023/04/29 07:31:06;;;;;;;61.85;29.17;;;;;;;10.22;90.72;100788.78;5019770;28;20033;-56
2023/04/29 07:33:32;;;;;;;54.55;28.05;;;;;;;10.17;90.25;100796.03;5030506;28;20335;-56
2023/04/29 07:35:58;;;;;;;58.88;27.70;;;;;;;10.24;90.28;100794.88;5033627;28;20075;-56
2023/04/29 07:38:23;;;;;;;57.42;27.85;;;;;;;10.22;90.00;100807.28;5030650;28;20100;-56
2023/04/29 07:40:49;;;;;;;52.35;27.05;;;;;;;10.23;90.13;100801.06;5029808;28;20037;-56
2023/04/29 07:43:14;;;;;;;53.60;27.38;;;;;;;10.30;90.18;100805.19;5030705;28;20060;-56
2023/04/29 07:45:40;;;;;;;50.60;28.33;;;;;;;10.22;89.63;100812.56;5034903;28;20026;-56
2023/04/29 07:48:05;;;;;;;63.38;28.80;;;;;;;10.16;89.51;100811.03;5029143;28;20099;-56
2023/04/29 07:50:35;;;;;;;50.55;26.42;;;;;;;10.21;88.73;100818.78;5033926;28;20021;-56
2023/04/29 07:53:02;;;;;;;49.78;26.95;;;;;;;10.29;88.85;100824.56;5028358;28;20304;-56
2023/04/29 07:55:30;;;;;;;50.35;27.02;;;;;;;10.31;89.02;100824.50;5035931;28;20025;-56
2023/04/29 07:57:56;;;;;;;49.58;24.80;;;;;;;10.25;88.72;100830.94;5033576;28;20029;-56
2023/04/29 08:00:24;;;;;;;48.53;25.50;;;;;;;10.17;88.47;100838.31;5031280;28;20060;-57
2023/04/29 08:02:51;;;;;;;52.92;24.23;;;;;;;10.17;88.63;100841.81;5028852;28;20029;-56
2023/04/29 08:05:16;;;;;;;44.53;23.48;;;;;;;10.07;87.92;100849.28;5026700;28;20604;-55
2023/04/29 08:07:42;;;;;;;43.97;24.85;;;;;;;10.01;88.14;100849.53;5029297;28;20041;-56
2023/04/29 08:10:08;;;;;;;50.10;24.08;;;;;;;10.02;89.00;100856.53;5014571;28;20049;-56
2023/04/29 08:12:33;;;;;;;44.22;24.73;;;;;;;10.05;89.19;100864.34;5030854;28;20587;-56
2023/04/29 08:14:58;;;;;;;43.97;24.42;;;;;;;10.08;89.55;100872.09;5030387;28;20038;-56
2023/04/29 08:17:24;;;;;;;42.75;24.55;;;;;;;10.09;89.33;100873.84;5031013;28;20381;-55
2023/04/29 08:19:49;;;;;;;49.17;25.27;;;;;;;10.13;88.94;100873.72;5030051;28;20025;-55
2023/04/29 08:22:15;;;;;;;46.13;24.55;;;;;;;10.08;89.28;100882.66;5031516;28;20449;-55
2023/04/29 08:24:41;;;;;;;48.80;25.35;;;;;;;10.07;88.62;100878.31;5015632;28;20029;-55
2023/04/29 08:27:07;;;;;;;47.60;25.35;;;;;;;10.07;88.47;100890.69;5028750;28;20029;-55
2023/04/29 08:29:33;;;;;;;46.75;24.35;;;;;;;10.00;88.59;100887.41;5026916;28;20095;-55
2023/04/29 08:31:58;;;;;;;49.47;23.92;;;;;;;10.01;87.91;100886.50;5026517;28;20026;-55
2023/04/29 08:34:24;;;;;;;52.90;25.83;;;;;;;10.04;88.62;100901.38;5026204;28;20037;-55
2023/04/29 08:36:49;;;;;;;48.17;24.30;;;;;;;10.09;89.03;100905.53;5014474;28;20105;-56
2023/04/29 08:39:15;;;;;;;58.03;25.55;;;;;;;9.95;88.76;100902.59;5039387;28;20083;-55
2023/04/29 08:41:42;;;;;;;48.97;25.17;;;;;;;9.97;88.47;100916.59;5034432;28;20422;-56
2023/04/29 08:44:08;;;;;;;45.25;25.17;;;;;;;9.95;89.00;100918.44;5035079;28;20021;-55
2023/04/29 08:46:33;;;;;;;56.53;26.73;;;;;;;9.88;88.96;100922.25;5026317;28;20018;-55
2023/04/29 08:49:02;;;;;;;59.90;28.23;;;;;;;9.90;89.54;100930.97;5032980;28;20469;-55
2023/04/29 08:51:28;;;;;;;67.85;27.60;;;;;;;9.94;89.32;100932.56;5035040;28;20061;-55
2023/04/29 08:53:55;;;;;;;57.50;27.63;;;;;;;9.88;89.43;100935.44;5034898;28;20068;-55
2023/04/29 08:56:20;;;;;;;65.72;29.05;;;;;;;9.69;90.78;100943.22;5031301;28;20112;-57
2023/04/29 08:58:46;;;;;;;72.57;30.70;;;;;;;9.52;90.52;100951.78;5034583;28;20105;-56
2023/04/29 09:01:13;;;;;;;71.82;33.88;;;;;;;9.52;90.60;100962.34;5033666;28;20040;-56
2023/04/29 09:04:00;;;;;;;81.72;33.85;;;;;;;9.42;91.09;100956.56;5034779;28;20036;-56
2023/04/29 09:06:25;;;;;;;70.65;31.90;;;;;;;9.40;91.01;100957.53;5032573;28;20025;-56
2023/04/29 09:08:51;;;;;;;81.85;33.95;;;;;;;9.37;91.57;100954.09;5034089;28;20021;-56
2023/04/29 09:11:17;;;;;;;78.45;34.92;;;;;;;9.32;91.90;100960.47;5034834;28;20057;-56
2023/04/29 09:13:42;;;;;;;73.80;33.03;;;;;;;9.27;91.74;100963.28;5033395;28;20021;-56
2023/04/29 09:16:11;;;;;;;73.07;32.65;;;;;;;9.22;91.35;100975.78;5032923;28;20427;-54
2023/04/29 09:18:50;;;;;;;74.85;34.53;;;;;;;9.26;92.24;100980.00;5033515;28;20041;-56
2023/04/29 09:21:16;;;;;;;88.22;35.13;;;;;;;9.34;91.87;100974.44;5018406;28;20088;-56
2023/04/29 09:23:42;;;;;;;66.13;30.95;;;;;;;9.44;91.61;100983.75;5032885;28;20109;-56
2023/04/29 09:26:08;;;;;;;66.68;28.83;;;;;;;9.47;91.41;100988.06;5033189;28;20092;-55
2023/04/29 09:28:33;;;;;;;56.05;28.05;;;;;;;9.50;90.52;100991.44;5035596;28;20389;-56
2023/04/29 09:31:05;;;;;;;51.42;25.33;;;;;;;9.47;89.71;100995.97;5033978;28;20469;-56
2023/04/29 09:33:31;;;;;;;54.47;27.50;;;;;;;9.54;89.71;101006.22;5035114;28;20033;-56
2023/04/29 09:35:56;;;;;;;59.92;31.52;;;;;;;9.50;89.75;101007.25;5032846;28;20094;-55
2023/04/29 09:38:22;;;;;;;53.30;27.48;;;;;;;9.50;89.35;101009.06;5033568;28;20033;-56
2023/04/29 09:40:47;;;;;;;55.78;28.42;;;;;;;9.54;89.41;101014.13;5031151;28;20032;-56
2023/04/29 09:43:14;;;;;;;57.85;29.20;;;;;;;9.53;89.58;101016.81;5033092;28;20021;-56
2023/04/29 09:45:47;;;;;;;55.58;28.52;;;;;;;9.56;89.49;101022.00;5031868;28;20037;-56
2023/04/29 09:48:13;;;;;;;57.58;27.48;;;;;;;9.57;89.09;101021.09;5031100;28;20032;-56
2023/04/29 09:50:41;;;;;;;52.10;30.27;;;;;;;9.58;89.49;101025.47;5033269;28;20029;-56
2023/04/29 09:53:08;;;;;;;57.75;29.30;;;;;;;9.57;89.20;101029.00;5035538;28;20029;-57
2023/04/29 09:55:57;;;;;;;56.50;28.50;;;;;;;9.54;88.86;101035.25;5042346;28;20199;-55
2023/04/29 09:58:35;;;;;;;52.20;28.63;;;;;;;9.59;88.53;101037.72;5026372;28;20052;-56
2023/04/29 10:01:01;;;;;;;48.97;27.17;;;;;;;9.60;88.47;101038.59;5032083;28;20033;-55
2023/04/29 10:03:34;;;;;;;50.67;28.50;;;;;;;9.55;88.48;101042.25;5032353;28;20393;-56
2023/04/29 10:06:01;;;;;;;50.33;26.95;;;;;;;9.66;88.28;101047.16;5031648;28;20025;-55
2023/04/29 10:08:28;;;;;;;52.58;29.75;;;;;;;9.74;88.60;101047.72;5028824;28;20454;-54
2023/04/29 10:10:56;;;;;;;49.25;28.20;;;;;;;9.78;88.76;101053.75;5025109;28;20098;-58
2023/04/29 10:13:25;;;;;;;58.05;30.50;;;;;;;9.68;88.14;101058.50;5032153;28;20033;-56
2023/04/29 10:16:01;;;;;;;55.63;30.10;;;;;;;9.60;88.65;101060.56;5026739;28;20025;-56
2023/04/29 10:18:35;;;;;;;62.30;31.48;;;;;;;9.44;88.29;101069.97;5025686;28;20076;-57
2023/04/29 10:21:01;;;;;;;64.57;30.40;;;;;;;9.37;88.90;101064.91;5033639;28;20450;-56
2023/04/29 10:23:27;;;;;;;63.40;30.38;;;;;;;9.47;88.66;101072.50;5032042;28;20091;-56
2023/04/29 10:25:54;;;;;;;68.57;33.30;;;;;;;9.46;88.57;101074.25;5031808;28;20013;-58
2023/04/29 10:28:20;;;;;;;68.70;32.40;;;;;;;9.47;88.53;101075.13;5032953;28;20120;-56
2023/04/29 10:30:50;;;;;;;69.60;33.78;;;;;;;9.55;88.64;101084.47;5032677;28;20029;-57
2023/04/29 10:33:16;;;;;;;72.37;32.37;;;;;;;9.57;87.86;101081.78;5031482;28;20119;-55
2023/04/29 10:35:43;;;;;;;59.72;31.30;;;;;;;9.70;88.04;101090.13;5031871;28;20014;-55
2023/04/29 10:38:16;;;;;;;66.15;32.90;;;;;;;9.72;87.28;101097.06;5033410;28;20037;-55
2023/04/29 10:40:47;;;;;;;69.00;33.13;;;;;;;9.76;87.48;101096.94;5032306;28;20025;-55
2023/04/29 10:43:13;;;;;;;64.05;32.42;;;;;;;9.59;85.98;101101.06;5030398;28;20183;-55
2023/04/29 10:45:39;;;;;;;64.32;32.50;;;;;;;9.69;86.72;101106.88;5033349;28;20358;-57
2023/04/29 10:48:09;;;;;;;61.47;33.75;;;;;;;9.79;86.59;101096.84;5033093;28;20036;-56
2023/04/29 10:50:46;;;;;;;58.78;34.70;;;;;;;9.78;86.48;101095.13;5032052;28;20096;-56
2023/04/29 10:53:15;;;;;;;64.60;33.47;;;;;;;9.85;84.89;101105.38;5031545;28;20048;-56
2023/04/29 10:55:42;;;;;;;55.80;33.10;;;;;;;10.01;84.46;101102.19;5029997;28;20040;-56
2023/04/29 10:58:36;;;;;;;54.10;31.02;;;;;;;10.09;84.50;101103.63;5034733;28;20636;-57
2023/04/29 11:01:02;;;;;;;53.35;31.15;;;;;;;10.03;83.69;101105.63;5031465;28;20034;-56
2023/04/29 11:03:47;;;;;;;49.40;30.90;;;;;;;10.07;84.75;101113.38;5033333;28;20040;-56
2023/04/29 11:06:13;;;;;;;57.95;30.75;;;;;;;9.97;82.93;101112.03;5028674;28;20128;-56
2023/04/29 11:08:39;;;;;;;54.35;31.25;;;;;;;10.08;83.13;101120.38;5031214;28;20480;-58
2023/04/29 11:11:07;;;;;;;53.42;31.55;;;;;;;10.16;83.90;101117.44;5032077;28;20037;-56